createdAt,value
2022-09-07T00:01:51.256Z,21.85
2022-09-07T00:06:55.103Z,18.70
2022-09-07T00:11:57.478Z,17.70
2022-09-07T00:16:59.862Z,25.45
2022-09-07T00:22:03.602Z,27.47
2022-09-07T00:27:06.220Z,30.05
2022-09-07T00:32:08.621Z,25.35
2022-09-07T00:37:12.324Z,28.43
2022-09-07T00:42:14.780Z,32.00
2022-09-07T00:47:19.830Z,33.35
2022-09-07T00:52:24.777Z,31.33
2022-09-07T00:57:28.111Z,32.72
2022-09-07T01:02:30.659Z,33.33
2022-09-07T01:07:34.561Z,40.85
2022-09-07T01:12:36.931Z,41.00
2022-09-07T01:17:46.780Z,36.93
2022-09-07T01:23:06.866Z,40.72
2022-09-07T01:28:13.289Z,43.55
2022-09-07T01:33:27.800Z,38.53
2022-09-07T01:38:32.322Z,42.13
2022-09-07T01:43:38.350Z,47.65
2022-09-07T01:48:41.653Z,46.33
2022-09-07T01:53:45.989Z,49.38
2022-09-07T01:58:51.655Z,46.90
2022-09-07T02:03:57.471Z,50.05
2022-09-07T02:09:03.081Z,49.25
2022-09-07T02:14:09.382Z,53.67
2022-09-07T02:19:14.914Z,47.38
2022-09-07T02:24:19.276Z,55.90
2022-09-07T02:29:23.053Z,51.33
2022-09-07T02:34:25.522Z,50.15
2022-09-07T02:39:27.957Z,55.22
2022-09-07T02:44:34.639Z,47.58
2022-09-07T02:49:43.701Z,55.45
2022-09-07T02:54:52.938Z,67.32
2022-09-07T03:00:02.559Z,64.65
2022-09-07T03:05:09.495Z,74.15
2022-09-07T03:10:13.764Z,68.63
2022-09-07T03:15:18.534Z,70.65
2022-09-07T03:20:21.060Z,90.03
2022-09-07T03:25:23.664Z,87.45
2022-09-07T03:30:27.389Z,80.68
2022-09-07T03:35:29.786Z,99.70
2022-09-07T03:40:32.140Z,92.63
2022-09-07T03:45:35.846Z,82.87
2022-09-07T03:50:38.228Z,79.88
2022-09-07T03:55:40.598Z,69.17
2022-09-07T04:00:44.292Z,76.77
2022-09-07T04:05:46.683Z,74.80
2022-09-07T04:10:49.066Z,71.07
2022-09-07T04:15:53.961Z,79.97
2022-09-07T04:20:59.497Z,78.78
2022-09-07T04:26:01.887Z,77.60
2022-09-07T04:31:05.849Z,75.53
2022-09-07T04:36:08.639Z,66.88
2022-09-07T04:41:11.894Z,51.28
2022-09-07T04:51:18.200Z,45.47
2022-09-07T04:56:21.309Z,43.47
2022-09-07T05:06:27.434Z,57.15
2022-09-07T05:11:30.261Z,55.33
2022-09-07T05:16:32.912Z,57.30
2022-09-07T05:21:36.636Z,59.85
2022-09-07T05:26:40.254Z,57.45
2022-09-07T05:31:42.633Z,55.50
2022-09-07T05:36:46.433Z,55.17
2022-09-07T05:41:48.844Z,54.90
2022-09-07T05:46:52.132Z,50.77
2022-09-07T05:51:56.211Z,45.92
2022-09-07T05:56:58.576Z,43.83
2022-09-07T06:02:01.516Z,40.23
2022-09-07T06:12:25.602Z,37.10
2022-09-07T06:17:28.676Z,38.03
2022-09-07T06:27:35.281Z,32.50
2022-09-07T06:32:45.730Z,33.72
2022-09-07T06:37:48.532Z,36.53
2022-09-07T06:42:52.337Z,31.92
2022-09-07T06:47:54.903Z,27.33
2022-09-07T06:58:21.046Z,21.40
2022-09-07T07:03:23.716Z,20.08
2022-09-07T07:08:26.515Z,20.05
2022-09-07T07:13:31.413Z,19.98
2022-09-07T07:18:34.453Z,21.50
2022-09-07T07:23:37.594Z,17.77
2022-09-07T07:34:02.196Z,18.52
2022-09-07T07:39:05.209Z,20.55
2022-09-07T07:44:09.694Z,18.55
2022-09-07T07:49:12.006Z,18.67
2022-09-07T07:54:14.470Z,18.00
2022-09-07T07:59:18.152Z,21.45
2022-09-07T08:04:20.682Z,18.83
2022-09-07T08:09:23.178Z,20.85
2022-09-07T08:14:27.035Z,18.98
2022-09-07T08:19:29.402Z,21.52
2022-09-07T08:24:32.325Z,20.88
2022-09-07T08:29:36.578Z,21.10
2022-09-07T08:34:38.930Z,23.67
2022-09-07T08:39:42.612Z,18.23
2022-09-07T08:44:48.328Z,19.95
2022-09-07T08:49:52.508Z,20.52
2022-09-07T08:54:59.482Z,18.65
2022-09-07T09:00:07.285Z,20.75
2022-09-07T09:05:17.374Z,17.83
2022-09-07T09:10:27.287Z,17.08
2022-09-07T09:15:36.944Z,22.00
2022-09-07T09:20:42.578Z,18.45
2022-09-07T09:25:48.242Z,17.30
2022-09-07T09:30:51.979Z,17.10
2022-09-07T09:35:55.722Z,17.75
2022-09-07T09:40:58.957Z,17.48
2022-09-07T09:46:18.217Z,19.27
2022-09-07T09:56:47.337Z,17.23
2022-09-07T10:07:18.977Z,18.73
2022-09-07T10:12:26.753Z,18.73
2022-09-07T10:17:33.093Z,20.08
2022-09-07T10:22:36.487Z,20.42
2022-09-07T10:27:40.897Z,19.67
2022-09-07T10:33:00.988Z,20.42
2022-09-07T10:38:12.398Z,18.85
2022-09-07T10:43:22.608Z,18.05
2022-09-07T10:48:27.568Z,17.85
2022-09-07T10:53:41.369Z,16.13
2022-09-07T10:59:04.987Z,15.45
2022-09-07T11:09:25.041Z,14.07
2022-09-07T11:14:28.423Z,12.65
2022-09-07T11:19:37.215Z,13.65
2022-09-07T11:24:45.461Z,14.80
2022-09-07T11:29:49.854Z,11.68
2022-09-07T11:34:56.492Z,14.00
2022-09-07T11:40:04.729Z,12.98
2022-09-07T11:45:15.085Z,11.88
2022-09-07T11:50:18.153Z,11.55
2022-09-07T11:55:25.338Z,13.73
2022-09-07T12:00:31.920Z,11.43
2022-09-07T12:05:41.488Z,12.68
2022-09-07T12:10:52.480Z,12.00
2022-09-07T12:15:59.981Z,9.18
2022-09-07T12:21:02.479Z,10.63
2022-09-07T12:26:37.949Z,10.63
2022-09-07T12:32:00.673Z,11.40
2022-09-07T12:37:22.645Z,10.77
2022-09-07T12:42:36.670Z,10.80
2022-09-07T12:47:41.396Z,10.52
2022-09-07T12:52:48.415Z,11.77
2022-09-07T12:57:56.159Z,9.98
2022-09-07T13:08:59.217Z,10.02
2022-09-07T13:14:04.965Z,2.72
2022-09-07T13:19:14.485Z,3.30
2022-09-07T13:24:46.254Z,6.53
2022-09-07T13:29:50.391Z,5.05
2022-09-07T13:35:06.595Z,5.03
2022-09-07T13:40:11.007Z,4.55
2022-09-07T13:45:27.515Z,7.88
2022-09-07T13:50:37.385Z,8.15
2022-09-07T13:55:43.769Z,7.15
2022-09-07T14:00:53.081Z,8.77
2022-09-07T14:06:15.882Z,10.50
2022-09-07T14:11:18.985Z,9.55
2022-09-07T14:16:21.453Z,7.72
2022-09-07T14:21:25.300Z,10.65
2022-09-07T14:26:29.153Z,14.05
2022-09-07T14:31:34.764Z,14.48
2022-09-07T14:36:45.741Z,17.85
2022-09-07T14:41:49.183Z,18.10
2022-09-07T14:46:55.362Z,16.33
2022-09-07T14:52:01.836Z,17.88
2022-09-07T14:57:25.668Z,19.73
2022-09-07T15:02:34.001Z,18.95
2022-09-07T15:07:38.908Z,19.20
2022-09-07T15:12:42.460Z,20.77
2022-09-07T15:17:45.451Z,18.38
2022-09-07T15:23:08.858Z,17.23
2022-09-07T15:33:15.153Z,14.97
2022-09-07T15:43:40.487Z,11.57
2022-09-07T15:48:49.877Z,10.40
2022-09-07T15:54:12.736Z,13.00
2022-09-07T15:59:15.153Z,9.38
2022-09-07T16:09:22.260Z,10.38
2022-09-07T16:14:25.682Z,10.88
2022-09-07T16:19:28.402Z,9.75
2022-09-07T16:24:32.231Z,10.10
2022-09-07T16:29:34.603Z,10.75
2022-09-07T16:34:37.087Z,10.60
2022-09-07T16:44:43.112Z,9.60
2022-09-07T16:49:45.503Z,8.68
2022-09-07T16:59:54.920Z,9.93
2022-09-07T17:04:57.505Z,8.85
2022-09-07T17:10:00.072Z,9.55
2022-09-07T17:15:03.903Z,7.80
2022-09-07T17:20:06.938Z,10.13
2022-09-07T17:25:09.895Z,9.13
2022-09-07T17:30:16.317Z,8.00
2022-09-07T17:35:19.332Z,9.73
2022-09-07T17:40:22.814Z,10.00
2022-09-07T17:45:27.961Z,9.43
2022-09-07T17:50:31.120Z,9.48
2022-09-07T17:55:34.117Z,9.27
2022-09-07T18:00:37.846Z,13.55
2022-09-07T18:05:40.226Z,8.98
2022-09-07T18:16:11.993Z,9.75
2022-09-07T18:21:15.247Z,12.95
2022-09-07T18:26:17.568Z,10.80
2022-09-07T18:31:21.716Z,13.50
2022-09-07T18:36:25.018Z,11.98
2022-09-07T18:41:27.373Z,11.43
2022-09-07T18:46:31.226Z,11.15
2022-09-07T18:52:51.512Z,12.15
2022-09-07T18:56:58.125Z,9.60
2022-09-07T19:02:05.011Z,9.27
2022-09-07T19:07:08.663Z,9.18
2022-09-07T19:12:10.972Z,12.32
2022-09-07T19:17:14.722Z,10.93
2022-09-07T19:22:17.018Z,9.40
2022-09-07T19:27:19.327Z,10.50
2022-09-07T19:32:22.979Z,14.07
2022-09-07T19:37:26.156Z,13.38
2022-09-07T19:42:28.648Z,12.95
2022-09-07T19:47:32.335Z,15.70
2022-09-07T19:52:35.263Z,14.00
2022-09-07T20:02:41.249Z,16.42
2022-09-07T20:07:43.663Z,17.52
2022-09-07T20:12:46.045Z,18.80
2022-09-07T20:17:49.684Z,19.40
2022-09-07T20:22:52.106Z,18.92
2022-09-07T20:27:54.495Z,20.70
2022-09-07T20:32:58.229Z,21.95
2022-09-07T20:38:01.605Z,25.33
2022-09-07T20:43:03.985Z,25.05
2022-09-07T20:48:07.699Z,22.60
2022-09-07T20:53:10.030Z,27.85
2022-09-07T20:58:12.330Z,23.07
2022-09-07T21:03:16.043Z,23.17
2022-09-07T21:08:18.752Z,22.77
2022-09-07T21:13:21.137Z,27.90
2022-09-07T21:18:25.272Z,25.00
2022-09-07T21:23:27.949Z,24.08
2022-09-07T21:28:30.298Z,25.38
2022-09-07T21:33:35.029Z,22.47
2022-09-07T21:38:38.134Z,30.58
2022-09-07T21:48:44.896Z,32.35
2022-09-07T21:53:51.322Z,25.95
2022-09-07T21:58:55.015Z,28.52
2022-09-07T22:03:59.570Z,23.30
2022-09-07T22:09:02.602Z,25.98
2022-09-07T22:14:05.418Z,24.70
2022-09-07T22:19:09.128Z,21.00
2022-09-07T22:24:12.342Z,20.38
2022-09-07T22:29:14.669Z,18.85
2022-09-07T22:34:18.417Z,16.80
2022-09-07T22:39:20.942Z,15.27
2022-09-07T22:44:24.608Z,16.63
2022-09-07T22:49:28.818Z,17.48
2022-09-07T22:54:31.118Z,17.13
2022-09-07T22:59:33.602Z,17.33
2022-09-07T23:04:37.358Z,19.08
2022-09-07T23:09:39.745Z,19.65
2022-09-07T23:14:42.113Z,20.60
2022-09-07T23:19:45.762Z,20.87
2022-09-07T23:24:48.102Z,20.17
2022-09-07T23:29:50.418Z,22.53
2022-09-07T23:34:54.094Z,21.97
2022-09-07T23:39:56.516Z,20.98
2022-09-07T23:44:58.926Z,25.45
2022-09-07T23:50:02.614Z,26.37
2022-09-07T23:55:05.395Z,27.42
